Time;durP1;ratioP1;P1;durP2;ratioP2;P2;SDS_P1;SDS_P2;PMS_P1;PMS_P2;Temp;Humidity;BMP_temperature;BMP_pressure;BME280_temperature;BME280_humidity;BME280_pressure;Samples;Min_cycle;Max_cycle;Signal;HPM_P1;HPM_P2
2022/06/24 00:01:14;;;;;;;3.20;2.00;;;20.30;75.60;;;;;;4987059;28;20038;-75
2022/06/24 00:03:42;;;;;;;3.47;2.10;;;20.30;75.50;;;;;;4969481;28;20510;-75
2022/06/24 00:06:16;;;;;;;3.55;2.20;;;20.30;75.50;;;;;;4969152;28;20049;-75
2022/06/24 00:08:50;;;;;;;4.60;2.33;;;20.20;75.60;;;;;;4985608;28;20031;-75
2022/06/24 00:11:15;;;;;;;4.25;2.20;;;20.20;75.90;;;;;;4987036;28;20087;-75
2022/06/24 00:13:41;;;;;;;3.85;2.22;;;20.20;75.90;;;;;;4986497;28;20057;-75
2022/06/24 00:16:06;;;;;;;4.43;2.17;;;20.20;76.10;;;;;;4969486;28;20041;-75
2022/06/24 00:18:32;;;;;;;4.20;2.10;;;20.20;76.20;;;;;;4986823;28;20446;-75
2022/06/24 00:20:57;;;;;;;4.07;2.15;;;20.20;76.20;;;;;;4986809;28;20033;-76
2022/06/24 00:23:23;;;;;;;4.10;2.13;;;20.20;76.30;;;;;;4986695;28;20057;-76
2022/06/24 00:25:49;;;;;;;5.18;2.33;;;20.10;76.20;;;;;;4968861;28;20403;-75
2022/06/24 00:28:15;;;;;;;4.85;2.40;;;20.20;76.20;;;;;;4986564;28;20053;-75
2022/06/24 00:30:51;;;;;;;3.75;2.03;;;20.20;76.10;;;;;;4969699;28;20503;-75
2022/06/24 00:33:22;;;;;;;3.75;2.10;;;20.20;75.90;;;;;;4986676;28;20144;-75
2022/06/24 00:35:50;;;;;;;4.32;2.15;;;20.20;75.90;;;;;;4985941;28;20400;-75
2022/06/24 00:38:33;;;;;;;3.42;2.25;;;20.20;75.80;;;;;;4986426;28;20027;-75
2022/06/24 00:41:06;;;;;;;3.95;2.08;;;20.30;75.70;;;;;;4968974;28;20101;-75
2022/06/24 00:43:32;;;;;;;2.95;1.95;;;20.30;75.80;;;;;;4968997;28;20034;-75
2022/06/24 00:46:08;;;;;;;3.60;2.03;;;20.30;75.70;;;;;;4986276;28;20031;-75
2022/06/24 00:48:38;;;;;;;3.72;2.00;;;20.30;75.70;;;;;;4986468;28;20034;-75
2022/06/24 00:51:04;;;;;;;4.00;2.20;;;20.30;75.80;;;;;;4968831;28;20451;-75
2022/06/24 00:53:38;;;;;;;4.63;2.40;;;20.20;75.90;;;;;;4984898;28;20080;-76
2022/06/24 00:56:04;;;;;;;3.88;2.20;;;20.20;76.10;;;;;;4984353;28;20026;-75
2022/06/24 00:58:33;;;;;;;4.28;2.28;;;20.20;76.20;;;;;;4986260;28;20026;-75
2022/06/24 01:00:59;;;;;;;3.55;2.13;;;20.20;76.10;;;;;;4986342;28;20459;-75
2022/06/24 01:03:35;;;;;;;2.92;2.03;;;20.20;76.20;;;;;;4985791;28;20463;-75
2022/06/24 01:06:01;;;;;;;4.10;2.10;;;20.20;76.10;;;;;;4985867;28;20124;-75
2022/06/24 01:08:26;;;;;;;3.60;2.08;;;20.20;76.30;;;;;;4968275;28;20122;-75
2022/06/24 01:10:51;;;;;;;4.05;2.10;;;20.10;76.50;;;;;;4985821;28;20561;-74
2022/06/24 01:13:17;;;;;;;4.15;2.17;;;20.10;76.50;;;;;;4985546;28;20030;-75
2022/06/24 01:15:43;;;;;;;3.72;2.05;;;20.20;76.60;;;;;;4967673;28;20080;-75
2022/06/24 01:18:08;;;;;;;4.38;2.38;;;20.10;76.60;;;;;;4985873;28;20487;-75
2022/06/24 01:20:34;;;;;;;4.57;2.17;;;20.20;76.70;;;;;;4986052;28;20031;-76
2022/06/24 01:22:59;;;;;;;3.35;1.98;;;20.20;76.50;;;;;;4968554;28;20027;-75
2022/06/24 01:25:25;;;;;;;3.30;2.17;;;20.20;76.50;;;;;;4985504;28;20026;-74
2022/06/24 01:27:50;;;;;;;3.45;2.10;;;20.20;76.40;;;;;;4968386;28;20026;-75
2022/06/24 01:30:16;;;;;;;4.32;2.25;;;20.20;76.30;;;;;;4985719;28;20534;-75
2022/06/24 01:32:41;;;;;;;3.22;1.90;;;20.30;76.30;;;;;;4985581;28;20026;-75
2022/06/24 01:35:08;;;;;;;4.05;2.30;;;20.20;76.10;;;;;;4985795;28;20061;-76
2022/06/24 01:37:33;;;;;;;3.15;2.03;;;20.20;76.20;;;;;;4984190;28;20089;-75
2022/06/24 01:39:59;;;;;;;4.18;2.25;;;20.30;76.20;;;;;;4985653;28;20023;-76
2022/06/24 01:42:24;;;;;;;3.58;1.90;;;20.20;76.20;;;;;;4985589;28;20062;-76
2022/06/24 01:44:50;;;;;;;3.40;1.92;;;20.20;76.20;;;;;;4985366;28;20105;-75
2022/06/24 01:47:15;;;;;;;3.25;2.08;;;20.20;76.30;;;;;;4967913;28;20459;-76
2022/06/24 01:49:41;;;;;;;3.17;2.03;;;20.20;76.40;;;;;;4985554;28;20093;-75
2022/06/24 01:52:06;;;;;;;2.72;2.00;;;20.20;76.50;;;;;;4985463;28;20049;-76
2022/06/24 01:54:32;;;;;;;3.55;2.10;;;20.20;76.50;;;;;;4985182;28;20042;-75
2022/06/24 01:56:57;;;;;;;3.05;1.90;;;20.20;76.60;;;;;;4967683;28;20030;-74
2022/06/24 01:59:23;;;;;;;3.25;2.17;;;20.20;76.70;;;;;;4968230;28;20053;-75
2022/06/24 02:01:49;;;;;;;4.20;2.13;;;20.10;76.60;;;;;;4984300;28;20471;-75
2022/06/24 02:04:15;;;;;;;3.70;2.22;;;20.10;76.80;;;;;;4985259;28;20058;-75
2022/06/24 02:06:40;;;;;;;3.25;2.00;;;20.10;76.70;;;;;;4985066;28;20076;-74
2022/06/24 02:09:06;;;;;;;3.22;2.10;;;20.20;76.80;;;;;;4985290;28;20478;-75
2022/06/24 02:14:18;;;;;;;3.95;2.10;;;20.10;76.90;;;;;;4985551;28;20067;-75
2022/06/24 02:16:45;;;;;;;3.22;2.15;;;20.20;76.90;;;;;;4984844;28;20503;-75
2022/06/24 02:19:11;;;;;;;4.15;2.15;;;20.10;76.80;;;;;;4967944;28;20030;-75
2022/06/24 02:21:37;;;;;;;3.38;2.05;;;20.20;76.70;;;;;;4985071;28;20027;-75
2022/06/24 02:24:04;;;;;;;4.15;2.22;;;20.20;76.60;;;;;;4985251;28;20502;-75
2022/06/24 02:26:29;;;;;;;3.08;2.00;;;20.20;76.60;;;;;;4986607;28;20279;-75
2022/06/24 02:28:55;;;;;;;3.85;2.15;;;20.20;76.50;;;;;;4989031;28;20129;-75
2022/06/24 02:31:21;;;;;;;2.92;1.98;;;20.30;76.50;;;;;;4988841;28;20049;-75
2022/06/24 02:33:46;;;;;;;3.22;2.00;;;20.20;76.50;;;;;;4988895;28;20030;-75
2022/06/24 02:36:13;;;;;;;3.85;1.88;;;20.20;76.50;;;;;;4988465;28;20443;-75
2022/06/24 02:38:38;;;;;;;3.88;1.95;;;20.20;76.60;;;;;;4987386;28;20030;-75
2022/06/24 02:41:04;;;;;;;3.72;2.08;;;20.20;76.70;;;;;;4988624;28;20290;-75
2022/06/24 02:43:34;;;;;;;3.45;2.10;;;20.20;76.70;;;;;;4987349;28;20044;-75
2022/06/24 02:46:23;;;;;;;3.05;2.20;;;20.20;76.80;;;;;;4986854;28;20030;-74
2022/06/24 02:48:48;;;;;;;4.60;2.15;;;20.20;76.90;;;;;;4966843;28;20681;-75
2022/06/24 02:51:15;;;;;;;3.72;2.30;;;20.20;76.90;;;;;;4960410;28;20124;-75
2022/06/24 02:53:41;;;;;;;3.92;2.10;;;20.20;76.90;;;;;;4988466;28;20033;-75
2022/06/24 02:56:10;;;;;;;3.40;2.35;;;20.20;77.00;;;;;;4988334;28;20027;-76
2022/06/24 02:58:36;;;;;;;4.15;2.25;;;20.20;77.20;;;;;;4988412;28;20014;-76
2022/06/24 03:01:03;;;;;;;3.35;2.15;;;20.10;77.20;;;;;;4988487;28;20031;-76
2022/06/24 03:03:29;;;;;;;2.38;1.75;;;20.20;77.30;;;;;;4988453;28;20029;-76
2022/06/24 03:05:55;;;;;;;3.95;2.33;;;20.10;77.30;;;;;;4970525;28;20618;-76
2022/06/24 03:08:22;;;;;;;2.95;2.13;;;20.10;77.30;;;;;;4988378;28;20030;-76
2022/06/24 03:10:49;;;;;;;3.75;2.30;;;20.20;77.20;;;;;;4988212;28;20041;-76
2022/06/24 03:13:15;;;;;;;3.45;2.10;;;20.20;77.20;;;;;;4988172;28;20117;-75
2022/06/24 03:15:43;;;;;;;3.20;2.00;;;20.20;77.10;;;;;;4970398;28;20630;-75
2022/06/24 03:18:09;;;;;;;3.35;1.85;;;20.20;77.00;;;;;;4970547;28;20022;-75
2022/06/24 03:20:35;;;;;;;3.72;2.10;;;20.20;76.90;;;;;;4988011;28;20457;-75
2022/06/24 03:23:00;;;;;;;3.83;2.55;;;20.20;76.80;;;;;;4987664;28;20162;-75
2022/06/24 03:25:26;;;;;;;4.05;1.98;;;20.20;76.80;;;;;;4970451;28;20169;-74
2022/06/24 03:27:51;;;;;;;3.13;1.95;;;20.20;76.80;;;;;;4970241;28;20586;-75
2022/06/24 03:30:17;;;;;;;3.08;1.92;;;20.20;76.80;;;;;;4987997;28;20022;-75
2022/06/24 03:32:43;;;;;;;3.38;1.88;;;20.20;76.90;;;;;;4987576;28;20052;-75
2022/06/24 03:35:09;;;;;;;4.03;2.20;;;20.20;77.10;;;;;;4987757;28;20029;-75
2022/06/24 03:37:35;;;;;;;3.30;2.08;;;20.20;77.20;;;;;;4986752;28;20034;-76
2022/06/24 03:40:01;;;;;;;3.28;2.10;;;20.20;77.20;;;;;;4987909;28;20030;-75
2022/06/24 03:42:27;;;;;;;2.65;1.90;;;20.20;77.30;;;;;;4987297;28;20070;-76
2022/06/24 03:44:53;;;;;;;2.38;1.70;;;20.20;77.40;;;;;;4987543;28;20098;-75
2022/06/24 03:47:19;;;;;;;3.85;2.10;;;20.20;77.40;;;;;;4969359;28;20033;-75
2022/06/24 03:49:45;;;;;;;3.40;2.08;;;20.20;77.40;;;;;;4987411;28;20034;-75
2022/06/24 03:52:11;;;;;;;3.85;2.10;;;20.10;77.50;;;;;;4987151;28;20054;-75
2022/06/24 03:54:37;;;;;;;3.63;2.50;;;20.10;77.60;;;;;;4987038;28;20514;-75
2022/06/24 03:57:03;;;;;;;3.63;2.13;;;20.20;77.70;;;;;;4986676;28;20038;-76
2022/06/24 03:59:29;;;;;;;4.63;2.33;;;20.10;77.70;;;;;;4987021;28;20545;-76
2022/06/24 04:01:55;;;;;;;3.47;2.25;;;20.10;77.70;;;;;;4978002;28;20026;-76
2022/06/24 04:04:20;;;;;;;3.70;2.17;;;20.20;77.60;;;;;;4980752;28;20478;-75
2022/06/24 04:06:46;;;;;;;3.13;2.10;;;20.20;77.60;;;;;;4978140;28;20080;-75
2022/06/24 04:09:12;;;;;;;3.22;1.98;;;20.30;77.50;;;;;;4994989;28;20037;-75
2022/06/24 04:11:37;;;;;;;2.92;2.00;;;20.20;77.30;;;;;;5006284;28;20036;-75
2022/06/24 04:14:03;;;;;;;2.83;2.00;;;20.30;77.20;;;;;;5006684;28;20125;-75
2022/06/24 04:16:29;;;;;;;3.08;2.20;;;20.20;77.20;;;;;;5006055;28;20104;-76
2022/06/24 04:18:55;;;;;;;3.45;2.10;;;20.20;77.20;;;;;;4988957;28;20036;-75
2022/06/24 04:21:21;;;;;;;3.85;2.17;;;20.20;77.20;;;;;;5006182;28;20033;-75
2022/06/24 04:23:50;;;;;;;3.50;2.30;;;20.20;77.30;;;;;;4988621;28;20080;-76
2022/06/24 04:26:20;;;;;;;3.17;2.17;;;20.20;77.40;;;;;;4988337;28;20276;-76
2022/06/24 04:28:46;;;;;;;5.13;2.00;;;20.20;77.50;;;;;;4988516;28;20030;-75
2022/06/24 04:31:13;;;;;;;3.53;2.20;;;20.20;77.60;;;;;;4989536;28;20117;-75
2022/06/24 04:33:38;;;;;;;3.58;2.20;;;20.20;77.60;;;;;;5005731;28;20054;-75
2022/06/24 04:36:11;;;;;;;3.25;1.95;;;20.20;77.60;;;;;;4989211;28;20537;-75
2022/06/24 04:38:36;;;;;;;3.85;2.35;;;20.20;77.70;;;;;;5005318;28;20029;-75
2022/06/24 04:41:10;;;;;;;3.63;2.20;;;20.20;77.80;;;;;;4990098;28;20031;-76
2022/06/24 04:43:35;;;;;;;3.88;2.28;;;20.10;77.80;;;;;;4983462;28;20100;-75
2022/06/24 04:46:01;;;;;;;2.85;1.90;;;20.20;77.90;;;;;;4993969;28;20457;-75
2022/06/24 04:48:26;;;;;;;2.83;1.90;;;20.20;78.00;;;;;;4989529;28;20040;-75
2022/06/24 04:50:52;;;;;;;3.85;2.10;;;20.20;78.00;;;;;;4987417;28;20462;-76
2022/06/24 04:53:17;;;;;;;3.05;2.00;;;20.20;78.00;;;;;;4999251;28;20040;-76
2022/06/24 04:55:43;;;;;;;3.60;2.20;;;20.20;77.90;;;;;;4964809;28;20764;-76
2022/06/24 04:58:08;;;;;;;2.92;2.05;;;20.20;77.80;;;;;;4969761;28;20109;-76
2022/06/24 05:00:34;;;;;;;3.33;2.15;;;20.30;77.80;;;;;;4986175;28;20114;-76
2022/06/24 05:02:59;;;;;;;3.60;2.20;;;20.30;77.60;;;;;;4969938;28;20399;-76
2022/06/24 05:05:25;;;;;;;2.80;2.00;;;20.30;77.50;;;;;;4969506;28;20026;-76
2022/06/24 05:07:50;;;;;;;3.30;2.10;;;20.40;77.40;;;;;;4976382;28;20034;-76
2022/06/24 05:10:16;;;;;;;3.90;2.15;;;20.40;77.40;;;;;;4994093;28;20515;-76
2022/06/24 05:12:41;;;;;;;2.75;1.90;;;20.30;77.20;;;;;;4994222;28;20045;-76
2022/06/24 05:15:07;;;;;;;3.22;2.17;;;20.30;77.30;;;;;;4998061;28;20026;-76
2022/06/24 05:17:33;;;;;;;3.53;2.20;;;20.30;77.40;;;;;;4985346;28;20315;-76
2022/06/24 05:19:58;;;;;;;4.20;2.20;;;20.50;78.10;;;;;;4996855;28;20030;-76
2022/06/24 05:22:24;;;;;;;2.80;2.00;;;20.40;77.50;;;;;;4992982;28;20034;-76
2022/06/24 05:24:49;;;;;;;3.10;2.00;;;20.30;77.40;;;;;;4974831;28;20534;-77
2022/06/24 05:27:15;;;;;;;2.80;2.10;;;20.30;77.40;;;;;;4975230;28;20054;-77
2022/06/24 05:29:40;;;;;;;3.17;1.92;;;20.30;77.50;;;;;;4989172;28;20026;-76
2022/06/24 05:32:06;;;;;;;4.60;2.25;;;20.30;77.50;;;;;;5005909;28;20491;-76
2022/06/24 05:34:32;;;;;;;3.42;2.00;;;20.30;77.60;;;;;;4992709;28;20283;-77
2022/06/24 05:36:57;;;;;;;2.90;2.20;;;20.30;77.60;;;;;;4999307;28;20038;-76
2022/06/24 05:39:23;;;;;;;4.15;2.15;;;20.30;77.70;;;;;;4976784;28;20022;-76
2022/06/24 05:41:48;;;;;;;3.67;2.20;;;20.30;77.70;;;;;;4980405;28;20018;-77
2022/06/24 05:44:14;;;;;;;3.40;2.10;;;20.30;77.80;;;;;;4969278;28;20033;-77
2022/06/24 05:46:40;;;;;;;3.38;2.25;;;20.30;77.80;;;;;;4969832;28;20027;-78
2022/06/24 05:49:06;;;;;;;3.90;2.08;;;20.30;77.70;;;;;;4970726;28;20037;-76
2022/06/24 05:51:34;;;;;;;3.85;2.10;;;20.30;77.70;;;;;;4987924;28;20030;-77
2022/06/24 05:56:45;;;;;;;3.05;2.05;;;20.40;77.50;;;;;;4987513;28;20089;-77
2022/06/24 05:59:11;;;;;;;4.00;2.00;;;20.40;77.30;;;;;;4970970;28;20328;-77
2022/06/24 06:01:36;;;;;;;3.40;2.03;;;20.50;77.40;;;;;;4993138;28;20491;-76
2022/06/24 06:04:02;;;;;;;3.58;2.20;;;20.40;77.20;;;;;;4996411;28;20030;-76
2022/06/24 06:06:28;;;;;;;4.00;2.22;;;20.40;77.30;;;;;;4995434;28;20044;-76
2022/06/24 06:08:53;;;;;;;2.85;1.90;;;20.40;77.30;;;;;;4982637;28;20057;-76
2022/06/24 06:11:24;;;;;;;3.08;2.00;;;20.40;77.40;;;;;;5003378;28;20107;-76
2022/06/24 06:13:52;;;;;;;2.92;1.88;;;20.40;77.40;;;;;;4999356;28;20057;-77
2022/06/24 06:16:18;;;;;;;3.47;1.98;;;20.40;77.50;;;;;;4973296;28;20081;-77
2022/06/24 06:18:44;;;;;;;3.20;2.05;;;20.40;77.60;;;;;;4996471;28;20025;-76
2022/06/24 06:21:11;;;;;;;3.17;1.90;;;20.40;77.60;;;;;;4982086;28;20026;-77
2022/06/24 06:23:38;;;;;;;3.38;2.00;;;20.40;77.70;;;;;;5002140;28;20018;-76
2022/06/24 06:26:05;;;;;;;2.97;1.95;;;20.40;77.60;;;;;;5002661;28;20033;-77
2022/06/24 06:28:31;;;;;;;3.92;2.17;;;20.40;77.80;;;;;;4982271;28;20026;-77
2022/06/24 06:30:57;;;;;;;2.55;1.88;;;20.40;77.80;;;;;;5006757;28;20491;-76
2022/06/24 06:33:23;;;;;;;4.32;2.35;;;20.40;78.00;;;;;;4981251;28;20627;-77
2022/06/24 06:35:48;;;;;;;3.42;2.05;;;20.30;78.10;;;;;;4989807;28;20113;-77
2022/06/24 06:38:15;;;;;;;3.42;1.90;;;20.30;78.10;;;;;;4973085;28;20050;-77
2022/06/24 06:40:40;;;;;;;3.20;2.20;;;20.40;78.10;;;;;;4973902;28;20041;-77
2022/06/24 06:43:07;;;;;;;3.20;1.90;;;20.40;78.10;;;;;;4992412;28;20030;-76
2022/06/24 06:45:34;;;;;;;3.45;1.95;;;20.40;78.00;;;;;;4991161;28;20045;-77
2022/06/24 06:48:00;;;;;;;4.45;2.05;;;20.40;77.80;;;;;;4973137;28;20295;-74
2022/06/24 06:50:26;;;;;;;3.58;2.10;;;20.50;77.80;;;;;;4991579;28;20034;-75
2022/06/24 06:52:52;;;;;;;4.78;2.00;;;20.50;77.60;;;;;;4990412;28;20030;-75
2022/06/24 06:55:18;;;;;;;5.20;2.10;;;20.50;77.50;;;;;;4991589;28;20032;-76
2022/06/24 06:57:43;;;;;;;4.05;1.88;;;20.50;77.60;;;;;;4990695;28;20042;-75
2022/06/24 07:00:10;;;;;;;3.60;2.13;;;20.50;77.70;;;;;;4973582;28;20046;-75
2022/06/24 07:02:36;;;;;;;3.85;1.98;;;20.50;77.80;;;;;;4991542;28;20034;-76
2022/06/24 07:05:02;;;;;;;3.85;2.10;;;20.40;77.80;;;;;;4990680;28;20023;-76
2022/06/24 07:07:28;;;;;;;3.00;1.90;;;20.40;77.90;;;;;;4973216;28;20038;-76
2022/06/24 07:09:54;;;;;;;5.15;2.20;;;20.40;78.00;;;;;;4973974;28;20041;-76
2022/06/24 07:12:20;;;;;;;3.20;2.00;;;20.40;78.20;;;;;;4972620;28;20022;-75
2022/06/24 07:28:05;;;;;;;2.90;2.05;;;20.40;78.70;;;;;;4923402;29;20595;-75
2022/06/24 07:34:40;;;;;;;;;;;;;;;;;;;;;
2022/06/24 07:41:13;;;;;;;;;;;;;;;;;;;;;
2022/06/24 07:44:44;;;;;;;;;;;;;;;;;;;;;
2022/06/24 07:50:52;;;;;;;3.63;1.92;;;20.50;78.50;;;;;;4990765;28;20340;-77
2022/06/24 08:01:43;;;;;;;4.53;2.25;;;20.40;78.40;;;;;;4910218;28;20073;-77
2022/06/24 08:04:40;;;;;;;3.47;1.95;;;20.40;78.50;;;;;;4887614;29;20904;-77
2022/06/24 08:11:19;;;;;;;3.38;1.80;;;20.40;78.70;;;;;;4819917;29;20049;-75
2022/06/24 08:17:39;;;;;;;;;;;;;;;;;;;;;
2022/06/24 08:33:02;;;;;;;2.75;1.60;;;20.50;78.80;;;;;;5046364;28;20044;-75
2022/06/24 08:36:04;;;;;;;2.75;1.98;;;20.50;78.70;;;;;;5020708;28;20405;-76
2022/06/24 08:38:52;;;;;;;3.70;2.20;;;20.50;78.50;;;;;;5004392;28;20037;-76
2022/06/24 08:44:38;;;;;;;2.80;1.75;;;20.50;78.50;;;;;;5047395;28;20040;-76
2022/06/24 08:47:03;;;;;;;2.80;1.90;;;19.90;78.20;;;;;;5029241;28;20437;-76
2022/06/24 08:53:56;;;;;;;4.32;2.20;;;20.60;78.40;;;;;;5019513;28;20036;-76
2022/06/24 08:56:03;;;;;;;2.90;1.90;;;20.70;78.50;;;;;;5039160;28;20044;-75
2022/06/24 08:58:29;;;;;;;4.00;1.98;;;20.60;78.50;;;;;;5026692;28;20018;-76
2022/06/24 09:00:54;;;;;;;2.95;1.90;;;20.60;78.40;;;;;;5027258;28;20485;-76
2022/06/24 09:03:20;;;;;;;3.20;1.95;;;20.60;78.50;;;;;;5045161;28;20151;-76
2022/06/24 09:05:46;;;;;;;3.75;1.90;;;20.60;78.50;;;;;;5027775;28;20223;-76
2022/06/24 09:08:13;;;;;;;3.78;1.95;;;20.60;78.60;;;;;;5027705;28;20021;-76
2022/06/24 09:10:43;;;;;;;3.13;1.85;;;20.70;78.70;;;;;;5046041;28;20622;-76
2022/06/24 09:13:22;;;;;;;3.28;1.73;;;20.70;78.60;;;;;;5045729;28;20068;-75
2022/06/24 09:15:52;;;;;;;4.55;2.08;;;20.70;78.60;;;;;;5045599;28;20021;-75
2022/06/24 09:18:24;;;;;;;2.25;1.65;;;20.70;78.60;;;;;;5027142;28;20029;-76
2022/06/24 09:20:57;;;;;;;4.18;1.95;;;20.70;78.60;;;;;;5027663;28;20025;-77
2022/06/24 09:23:23;;;;;;;2.90;1.77;;;20.70;78.50;;;;;;5027794;28;20025;-75
2022/06/24 09:25:57;;;;;;;2.95;1.88;;;20.70;78.40;;;;;;5027581;28;20075;-76
2022/06/24 09:28:28;;;;;;;3.55;2.10;;;20.70;78.40;;;;;;5045486;28;20021;-75
2022/06/24 09:31:04;;;;;;;3.03;1.98;;;20.70;78.40;;;;;;5045804;28;20056;-75
2022/06/24 09:33:41;;;;;;;3.50;1.90;;;20.70;78.40;;;;;;5045401;28;20345;-75
2022/06/24 09:36:11;;;;;;;3.88;2.15;;;20.70;78.50;;;;;;5046298;28;20037;-75
2022/06/24 09:38:56;;;;;;;2.63;1.80;;;20.70;79.20;;;;;;5049920;28;20079;-75
2022/06/24 09:41:23;;;;;;;2.75;1.80;;;20.70;78.80;;;;;;5031617;28;20052;-75
2022/06/24 09:43:51;;;;;;;3.53;1.80;;;20.60;78.90;;;;;;5049615;28;20017;-75
2022/06/24 09:46:19;;;;;;;2.50;1.70;;;20.60;78.90;;;;;;5031296;28;20029;-76
2022/06/24 09:48:45;;;;;;;3.25;1.80;;;20.60;79.00;;;;;;5049342;28;20033;-75
2022/06/24 09:51:11;;;;;;;3.40;1.90;;;20.60;79.10;;;;;;5049416;28;20020;-75
2022/06/24 09:53:42;;;;;;;3.20;1.95;;;20.60;79.20;;;;;;5030861;28;20568;-76
2022/06/24 09:56:09;;;;;;;2.30;1.70;;;20.60;79.20;;;;;;5027920;28;20033;-75
2022/06/24 09:58:36;;;;;;;3.33;1.90;;;20.60;79.30;;;;;;5049193;28;20075;-75
2022/06/24 10:01:02;;;;;;;2.78;1.80;;;20.60;79.30;;;;;;5049415;28;20028;-75
2022/06/24 10:03:28;;;;;;;3.42;2.00;;;20.60;79.40;;;;;;5031061;28;20064;-77
2022/06/24 10:05:59;;;;;;;2.20;1.60;;;20.60;79.50;;;;;;5031175;28;20106;-75
2022/06/24 10:08:26;;;;;;;3.08;1.90;;;20.60;79.50;;;;;;5030947;28;20028;-75
2022/06/24 10:10:53;;;;;;;2.55;1.60;;;20.60;79.50;;;;;;5031016;28;20033;-76
2022/06/24 10:13:32;;;;;;;3.60;1.98;;;20.60;79.40;;;;;;5048843;28;20083;-76
2022/06/24 10:16:00;;;;;;;2.70;1.80;;;20.70;79.40;;;;;;5048854;28;20021;-74
2022/06/24 10:18:32;;;;;;;2.55;1.70;;;20.60;79.30;;;;;;5030446;28;20032;-75
2022/06/24 10:21:01;;;;;;;2.90;1.70;;;20.70;79.20;;;;;;5048983;28;20539;-75
2022/06/24 10:23:43;;;;;;;3.30;1.85;;;20.70;79.10;;;;;;5048742;28;20051;-76
2022/06/24 10:26:27;;;;;;;2.33;1.75;;;20.70;79.00;;;;;;5031026;28;20029;-75
2022/06/24 10:29:04;;;;;;;2.83;1.73;;;20.70;78.90;;;;;;5030927;28;20501;-75
2022/06/24 10:31:44;;;;;;;2.53;1.65;;;20.70;78.90;;;;;;5030597;28;20177;-75
2022/06/24 10:34:29;;;;;;;3.43;1.50;;;20.80;79.00;;;;;;5048283;28;20035;-75
2022/06/24 10:37:00;;;;;;;3.13;1.80;;;20.80;79.00;;;;;;5047983;28;20925;-76
2022/06/24 10:39:51;;;;;;;3.70;2.05;;;20.70;79.10;;;;;;5048079;28;20033;-75
2022/06/24 10:42:20;;;;;;;3.17;1.73;;;20.70;79.10;;;;;;5048516;28;20021;-76
2022/06/24 10:45:06;;;;;;;3.70;1.70;;;20.70;79.20;;;;;;5030434;28;20025;-75
2022/06/24 10:47:34;;;;;;;2.83;1.83;;;20.70;79.30;;;;;;5018476;28;20052;-75
2022/06/24 10:50:01;;;;;;;3.22;1.77;;;20.70;79.50;;;;;;5022160;28;20030;-75
2022/06/24 10:52:38;;;;;;;3.65;1.95;;;20.70;79.60;;;;;;5017966;28;20029;-76
2022/06/24 10:55:28;;;;;;;2.60;1.60;;;20.70;79.60;;;;;;5019472;28;20114;-75
2022/06/24 10:58:06;;;;;;;3.22;1.75;;;20.70;79.60;;;;;;5011987;28;20044;-75
2022/06/24 11:00:37;;;;;;;2.67;1.60;;;20.70;79.60;;;;;;5025465;28;20241;-75
2022/06/24 11:03:02;;;;;;;2.53;1.60;;;20.70;79.50;;;;;;5007738;28;20037;-76
2022/06/24 11:05:38;;;;;;;3.20;1.70;;;20.70;79.50;;;;;;5008750;28;20071;-75
2022/06/24 11:08:14;;;;;;;2.95;1.75;;;20.70;79.40;;;;;;5040166;28;20033;-75
2022/06/24 11:10:41;;;;;;;2.28;1.52;;;20.80;79.30;;;;;;5009763;28;20033;-76
2022/06/24 11:13:07;;;;;;;3.17;1.80;;;20.80;79.10;;;;;;5019035;28;20026;-74
2022/06/24 11:15:46;;;;;;;3.35;1.85;;;20.80;79.00;;;;;;5007295;28;20040;-75
2022/06/24 11:18:16;;;;;;;5.15;1.88;;;20.90;78.90;;;;;;5027078;28;20029;-76
2022/06/24 11:20:47;;;;;;;3.85;1.95;;;20.90;78.90;;;;;;5009076;28;20025;-76
2022/06/24 11:23:15;;;;;;;3.50;1.80;;;20.90;78.90;;;;;;5045598;28;20593;-75
2022/06/24 11:25:46;;;;;;;4.80;1.75;;;20.90;79.00;;;;;;5039249;28;20065;-74
2022/06/24 11:28:26;;;;;;;4.18;1.70;;;20.80;78.90;;;;;;5009187;28;20036;-75
2022/06/24 11:30:53;;;;;;;3.88;1.75;;;20.80;79.00;;;;;;5009727;28;20121;-74
2022/06/24 11:33:20;;;;;;;3.92;1.80;;;20.80;79.10;;;;;;5009190;28;20328;-75
2022/06/24 11:35:50;;;;;;;4.72;1.60;;;20.80;79.10;;;;;;5009328;28;20034;-74
2022/06/24 11:38:19;;;;;;;4.43;2.00;;;20.80;79.30;;;;;;5009203;28;20033;-75
2022/06/24 11:40:46;;;;;;;4.20;1.70;;;20.80;79.30;;;;;;5009108;28;20022;-75
2022/06/24 11:43:13;;;;;;;3.58;1.80;;;20.80;79.50;;;;;;5009073;28;20026;-75
2022/06/24 11:45:49;;;;;;;3.65;1.73;;;20.80;79.50;;;;;;5009219;28;20025;-74
2022/06/24 11:48:24;;;;;;;3.38;1.80;;;20.80;79.50;;;;;;5026572;28;20026;-75
2022/06/24 11:50:51;;;;;;;2.80;1.60;;;20.80;79.50;;;;;;5009182;28;20049;-75
2022/06/24 11:53:22;;;;;;;3.67;1.90;;;20.80;79.50;;;;;;5026678;28;20021;-75
2022/06/24 11:55:50;;;;;;;5.07;1.90;;;20.80;79.50;;;;;;5008894;28;20494;-75
2022/06/24 11:58:19;;;;;;;3.28;1.90;;;20.80;79.50;;;;;;5026124;28;20498;-75
2022/06/24 12:00:46;;;;;;;2.95;1.60;;;20.80;79.50;;;;;;5026854;28;20086;-74
2022/06/24 12:03:12;;;;;;;3.90;1.70;;;20.80;79.50;;;;;;5026322;28;20037;-75
2022/06/24 12:05:43;;;;;;;4.63;2.03;;;20.80;79.30;;;;;;5008828;28;20107;-75
2022/06/24 12:08:10;;;;;;;2.88;1.70;;;20.90;79.20;;;;;;5008739;28;20132;-75
2022/06/24 12:10:47;;;;;;;4.57;1.60;;;20.90;79.10;;;;;;5008590;28;20029;-74
2022/06/24 12:13:29;;;;;;;4.28;1.70;;;20.90;79.00;;;;;;5026390;28;20033;-75
2022/06/24 12:15:56;;;;;;;3.75;1.65;;;20.90;79.00;;;;;;5026252;28;20034;-75
2022/06/24 12:18:23;;;;;;;3.85;1.60;;;20.90;79.10;;;;;;5026255;28;20033;-75
2022/06/24 12:21:22;;;;;;;4.88;1.90;;;20.90;79.10;;;;;;5026281;28;20030;-75
2022/06/24 12:23:48;;;;;;;2.22;1.63;;;20.90;79.20;;;;;;5025937;28;20079;-75
2022/06/24 12:26:16;;;;;;;4.20;1.63;;;20.80;79.30;;;;;;5008281;28;20137;-75
2022/06/24 12:28:42;;;;;;;4.15;1.80;;;20.80;79.40;;;;;;5025830;28;20027;-75
2022/06/24 12:31:10;;;;;;;5.05;2.03;;;20.80;79.40;;;;;;5026075;28;20043;-75
2022/06/24 12:33:48;;;;;;;3.38;1.90;;;20.80;79.50;;;;;;5008253;28;20037;-75
2022/06/24 12:36:16;;;;;;;2.72;1.58;;;20.70;79.70;;;;;;5008270;28;20037;-75
2022/06/24 12:38:47;;;;;;;4.10;1.70;;;20.80;79.80;;;;;;5007954;28;20555;-75
2022/06/24 12:41:14;;;;;;;;;;;20.70;79.90;;;;;;5026451;28;20072;-75
2022/06/24 12:43:56;;;;;;;2.60;1.50;;;20.70;79.90;;;;;;5025421;28;19913;-75
2022/06/24 12:46:25;;;;;;;2.22;1.50;;;20.70;80.00;;;;;;5025606;28;20021;-75
2022/06/24 12:51:43;;;;;;;3.95;1.70;;;20.70;80.10;;;;;;5026110;28;20371;-75
2022/06/24 12:54:10;;;;;;;3.25;1.58;;;20.70;80.20;;;;;;5008040;28;20704;-75
2022/06/24 12:56:35;;;;;;;3.65;1.65;;;20.70;80.10;;;;;;5025202;28;20398;-75
2022/06/24 12:59:02;;;;;;;2.70;1.52;;;20.70;80.10;;;;;;5008072;28;20025;-75
2022/06/24 13:01:27;;;;;;;2.65;1.60;;;20.70;80.10;;;;;;5026041;28;20047;-75
2022/06/24 13:03:53;;;;;;;3.15;1.65;;;20.60;80.00;;;;;;5007764;28;20487;-75
2022/06/24 13:06:19;;;;;;;3.40;1.77;;;20.70;80.00;;;;;;5007666;28;20029;-74
2022/06/24 13:08:45;;;;;;;2.63;1.70;;;20.70;80.10;;;;;;5007408;28;20027;-75
2022/06/24 13:11:11;;;;;;;3.83;1.60;;;20.70;80.20;;;;;;5007042;28;20035;-75
2022/06/24 13:13:37;;;;;;;2.53;1.80;;;20.70;80.20;;;;;;5007673;28;20033;-75
2022/06/24 13:16:03;;;;;;;3.53;1.52;;;20.70;80.20;;;;;;5007568;28;20030;-73
2022/06/24 13:18:29;;;;;;;2.72;1.60;;;20.60;80.30;;;;;;5025136;28;20505;-76
2022/06/24 13:20:54;;;;;;;3.10;1.70;;;20.60;80.40;;;;;;5007512;28;20026;-75
2022/06/24 13:23:20;;;;;;;3.55;1.50;;;20.60;80.50;;;;;;5007599;28;20040;-74
2022/06/24 13:25:46;;;;;;;2.97;1.80;;;20.60;80.70;;;;;;5024949;28;20119;-75
2022/06/24 13:28:12;;;;;;;2.83;1.58;;;20.50;80.70;;;;;;5025010;28;20025;-75
2022/06/24 13:30:37;;;;;;;2.88;1.50;;;20.60;80.80;;;;;;5007375;28;20029;-75
2022/06/24 13:33:03;;;;;;;3.60;1.80;;;20.60;80.90;;;;;;5007465;28;20112;-74
2022/06/24 13:35:28;;;;;;;3.25;1.50;;;20.60;80.90;;;;;;5007302;28;20063;-75
2022/06/24 13:37:54;;;;;;;3.10;1.77;;;20.60;80.90;;;;;;5024806;28;20528;-75
2022/06/24 13:40:19;;;;;;;2.80;1.50;;;20.60;80.90;;;;;;5007495;28;20029;-75
2022/06/24 13:42:45;;;;;;;2.88;1.80;;;20.60;80.90;;;;;;5024974;28;20029;-74
2022/06/24 13:45:11;;;;;;;4.22;1.60;;;20.60;80.80;;;;;;5007358;28;20026;-76
2022/06/24 13:47:37;;;;;;;3.15;1.60;;;20.60;80.60;;;;;;5006991;28;20025;-74
2022/06/24 13:50:04;;;;;;;2.67;1.60;;;20.70;80.60;;;;;;5025274;28;20021;-75
2022/06/24 13:52:29;;;;;;;3.47;1.73;;;20.70;80.40;;;;;;5007032;28;20453;-75
2022/06/24 13:54:56;;;;;;;3.28;1.60;;;20.70;80.30;;;;;;5024885;28;20029;-74
2022/06/24 13:57:23;;;;;;;3.85;1.80;;;20.70;80.20;;;;;;5006949;28;20030;-75
2022/06/24 13:59:49;;;;;;;4.13;1.60;;;20.70;80.20;;;;;;5025015;28;20022;-75
2022/06/24 14:02:15;;;;;;;3.25;1.55;;;20.70;80.20;;;;;;5025171;28;20029;-74
2022/06/24 14:04:41;;;;;;;2.95;1.70;;;20.70;80.10;;;;;;5007098;28;20028;-74
2022/06/24 14:07:06;;;;;;;2.70;1.60;;;20.70;80.10;;;;;;5024877;28;20111;-74